Time;durP1;ratioP1;P1;durP2;ratioP2;P2;SDS_P1;SDS_P2;PMS_P1;PMS_P2;Temp;Humidity;BMP_temperature;BMP_pressure;BME280_temperature;BME280_humidity;BME280_pressure;Samples;Min_cycle;Max_cycle;Signal;HPM_P1;HPM_P2
2023/09/01 17:27:08;;;;;;;1.50;0.80;;;;;;;20.74;77.09;100467.69;4189121;27;20428;-66
2023/09/01 17:29:11;;;;;;;4.72;1.42;;;;;;;20.79;77.06;100473.69;4123730;28;20064;-67
2023/09/01 17:31:17;;;;;;;4.43;1.00;;;;;;;20.88;76.42;100473.47;4155814;28;20737;-66
2023/09/01 17:33:20;;;;;;;1.38;0.90;;;;;;;20.98;75.86;100483.75;4172572;28;20083;-67
2023/09/01 17:35:23;;;;;;;2.47;0.70;;;;;;;21.05;75.64;100477.38;4173830;28;20087;-67
2023/09/01 17:37:26;;;;;;;2.75;1.30;;;;;;;21.12;75.18;100481.59;4156292;28;20042;-67
2023/09/01 17:39:29;;;;;;;2.28;0.90;;;;;;;21.20;74.68;100476.97;4192029;23;20024;-68
2023/09/01 17:41:35;;;;;;;2.15;0.90;;;;;;;21.22;74.30;100482.19;4178114;28;20048;-69
2023/09/01 17:43:39;;;;;;;3.17;0.80;;;;;;;21.18;74.65;100478.75;4174709;28;20041;-72
2023/09/01 17:45:42;;;;;;;2.83;1.10;;;;;;;21.18;74.66;100481.41;4191346;28;20040;-67
2023/09/01 17:47:47;;;;;;;1.40;0.93;;;;;;;21.18;74.66;100477.91;4193124;28;20051;-66
2023/09/01 17:49:50;;;;;;;1.40;0.70;;;;;;;21.17;74.58;100484.09;4193740;28;20041;-70
2023/09/01 17:51:53;;;;;;;2.17;0.82;;;;;;;21.17;74.19;100487.59;4191839;28;20054;-63
2023/09/01 17:53:57;;;;;;;1.73;1.20;;;;;;;21.16;74.56;100490.28;4173788;28;20041;-66
2023/09/01 17:56:00;;;;;;;2.08;1.05;;;;;;;21.12;74.97;100486.88;4189850;28;20560;-66
2023/09/01 17:58:04;;;;;;;1.52;0.70;;;;;;;21.09;75.10;100484.31;4191625;28;20044;-64
2023/09/01 18:00:10;;;;;;;;;;;;;;;20.99;75.08;100488.16;4192373;28;20450;-64
2023/09/01 18:02:13;;;;;;;3.40;0.90;;;;;;;20.99;74.96;100496.06;4190972;28;19928;-64
2023/09/01 18:04:18;;;;;;;3.47;1.30;;;;;;;20.98;75.58;100492.53;4191654;28;20537;-64
2023/09/01 18:06:21;;;;;;;3.55;1.00;;;;;;;20.95;75.57;100491.78;4187097;28;20045;-64
2023/09/01 18:08:24;;;;;;;2.08;0.90;;;;;;;20.91;75.75;100497.16;4190699;28;20037;-64
2023/09/01 18:10:26;;;;;;;0.82;0.73;;;;;;;20.90;75.79;100500.69;4182395;28;20041;-64
2023/09/01 18:12:29;;;;;;;2.08;0.98;;;;;;;20.86;75.47;100496.41;4191390;28;20052;-64
2023/09/01 18:14:34;;;;;;;2.55;0.85;;;;;;;20.83;75.08;100501.78;4170328;28;20176;-64
2023/09/01 18:16:38;;;;;;;2.28;1.13;;;;;;;20.83;73.70;100515.00;4173734;28;20510;-64
2023/09/01 18:18:41;;;;;;;1.90;1.00;;;;;;;20.77;74.11;100509.88;4188989;28;20102;-64
2023/09/01 18:20:44;;;;;;;2.40;1.00;;;;;;;20.75;74.74;100511.72;4189831;28;20068;-64
2023/09/01 18:22:50;;;;;;;4.68;1.23;;;;;;;20.74;75.01;100510.81;4169841;28;20522;-64
2023/09/01 18:24:52;;;;;;;6.03;0.90;;;;;;;20.70;75.61;100518.88;4186807;28;21150;-65
2023/09/01 18:26:55;;;;;;;6.13;1.40;;;;;;;20.68;76.11;100521.56;4186768;28;20045;-64
2023/09/01 18:29:00;;;;;;;4.70;0.90;;;;;;;20.66;76.39;100519.84;4179556;28;20039;-65
2023/09/01 18:31:03;;;;;;;3.35;1.10;;;;;;;20.63;76.62;100533.13;4176699;28;20123;-70
2023/09/01 18:33:10;;;;;;;2.20;0.93;;;;;;;20.60;77.38;100527.94;4165103;28;20108;-66
2023/09/01 18:35:12;;;;;;;4.03;0.70;;;;;;;20.56;77.28;100533.28;4179554;28;20059;-70
2023/09/01 18:37:18;;;;;;;3.35;0.90;;;;;;;20.54;77.23;100532.44;4182006;28;20063;-68
2023/09/01 18:39:23;;;;;;;5.95;1.40;;;;;;;20.50;77.36;100533.47;4164815;28;20503;-67
2023/09/01 18:41:29;;;;;;;3.40;1.05;;;;;;;20.50;77.54;100541.38;4162209;28;20046;-67
2023/09/01 18:43:31;;;;;;;1.45;0.80;;;;;;;20.44;77.65;100544.16;4178978;28;20474;-68
2023/09/01 18:45:34;;;;;;;2.83;1.10;;;;;;;20.39;78.29;100540.78;4184017;28;20072;-67
2023/09/01 18:47:38;;;;;;;2.35;1.20;;;;;;;20.36;78.60;100551.41;4169704;28;20045;-67
2023/09/01 18:49:51;;;;;;;7.60;1.17;;;;;;;20.34;78.98;100553.22;4164921;28;20095;-67
2023/09/01 18:51:57;;;;;;;2.28;0.93;;;;;;;20.28;78.68;100548.97;4148544;28;20046;-67
2023/09/01 18:54:00;;;;;;;0.82;0.70;;;;;;;20.27;78.17;100549.88;4161247;28;20125;-68
2023/09/01 18:56:04;;;;;;;3.45;0.93;;;;;;;20.25;78.16;100553.44;4144590;28;20037;-68
2023/09/01 18:58:08;;;;;;;4.57;0.80;;;;;;;20.22;78.06;100560.56;4162572;28;20049;-69
2023/09/01 19:00:14;;;;;;;2.25;1.30;;;;;;;20.18;77.80;100563.28;4160345;28;20050;-66
2023/09/01 19:02:34;;;;;;;4.90;1.30;;;;;;;20.14;77.69;100561.63;4159707;28;20408;-67
2023/09/01 19:04:44;;;;;;;3.92;0.88;;;;;;;20.10;77.64;100562.63;4129451;28;20064;-68
2023/09/01 19:06:48;;;;;;;2.60;1.05;;;;;;;20.07;77.70;100566.19;4160284;28;20026;-68
2023/09/01 19:08:52;;;;;;;3.58;1.00;;;;;;;20.04;77.84;100566.25;4162700;28;20061;-66
2023/09/01 19:10:55;;;;;;;2.42;1.08;;;;;;;20.00;77.63;100570.72;4142954;28;20140;-68
2023/09/01 19:13:01;;;;;;;1.48;0.90;;;;;;;19.97;77.33;100572.56;4145421;28;20480;-68
2023/09/01 19:15:04;;;;;;;1.88;1.02;;;;;;;19.95;77.53;100582.31;4142714;28;20129;-71
2023/09/01 19:17:07;;;;;;;5.20;1.20;;;;;;;19.92;77.68;100577.06;4160872;28;20034;-70
2023/09/01 19:19:10;;;;;;;1.60;1.10;;;;;;;19.91;77.67;100578.84;4162243;28;20136;-68
2023/09/01 19:21:16;;;;;;;2.88;1.08;;;;;;;19.92;77.67;100579.72;4162740;28;20132;-68
2023/09/01 19:23:28;;;;;;;3.35;0.90;;;;;;;19.88;77.90;100578.94;4142822;28;20046;-67
2023/09/01 19:25:31;;;;;;;4.55;1.10;;;;;;;19.86;78.06;100578.97;4137382;28;20092;-68
2023/09/01 19:27:34;;;;;;;8.18;1.20;;;;;;;19.84;78.08;100578.16;4152634;28;20045;-68
2023/09/01 19:29:37;;;;;;;4.07;1.10;;;;;;;19.80;78.36;100579.13;4144401;28;20034;-67
2023/09/01 19:31:44;;;;;;;4.00;0.90;;;;;;;19.79;78.59;100582.66;4141525;28;20418;-68
2023/09/01 19:33:53;;;;;;;3.22;1.00;;;;;;;19.77;78.74;100583.53;4157521;28;20045;-68
2023/09/01 19:35:54;;;;;;;3.03;0.82;;;;;;;19.72;78.72;100586.28;4163321;28;20608;-68
2023/09/01 19:37:59;;;;;;;5.88;1.10;;;;;;;19.72;78.75;100596.84;4164786;28;20068;-68
2023/09/01 19:40:02;;;;;;;1.98;0.93;;;;;;;19.68;78.54;100597.78;4164403;28;20081;-68
2023/09/01 19:42:06;;;;;;;4.05;0.90;;;;;;;19.67;78.45;100604.84;4165216;28;20100;-68
2023/09/01 19:44:09;;;;;;;;;;;;;;;19.57;78.59;100613.00;4165686;28;20133;-68
2023/09/01 19:46:13;;;;;;;3.20;1.00;;;;;;;19.57;78.65;100610.38;4150787;28;19922;-68
2023/09/01 19:48:16;;;;;;;2.15;1.05;;;;;;;19.60;78.68;100618.22;4145573;28;20463;-68
2023/09/01 19:50:23;;;;;;;2.92;1.42;;;;;;;19.63;78.51;100618.13;4140085;28;20583;-68
2023/09/01 19:52:27;;;;;;;3.03;1.60;;;;;;;19.64;78.66;100626.00;4155084;28;20042;-69
2023/09/01 19:54:32;;;;;;;3.75;1.70;;;;;;;19.64;78.63;100622.50;4157192;28;20072;-68
2023/09/01 19:56:34;;;;;;;7.22;1.45;;;;;;;19.65;78.56;100626.88;4143547;28;20432;-68
2023/09/01 19:58:43;;;;;;;2.45;1.02;;;;;;;19.64;78.87;100626.00;4143677;28;20551;-68
2023/09/01 20:00:48;;;;;;;7.78;1.50;;;;;;;19.62;79.09;100621.66;4159049;28;20377;-67
2023/09/01 20:02:58;;;;;;;2.60;0.90;;;;;;;19.61;78.86;100625.19;4157529;28;20104;-67
2023/09/01 20:05:01;;;;;;;2.13;1.20;;;;;;;19.58;78.95;100625.25;4162084;28;20495;-68
2023/09/01 20:07:04;;;;;;;2.15;0.90;;;;;;;19.56;79.19;100635.00;4164020;28;20439;-68
2023/09/01 20:09:12;;;;;;;5.70;1.40;;;;;;;19.52;79.11;100627.13;4147088;28;20037;-68
2023/09/01 20:11:18;;;;;;;3.50;1.40;;;;;;;19.51;79.07;100628.03;4146374;28;20096;-68
2023/09/01 20:13:22;;;;;;;4.75;1.20;;;;;;;19.51;79.12;100635.94;4160019;28;20046;-68
2023/09/01 20:15:28;;;;;;;1.73;1.10;;;;;;;19.53;78.80;100638.53;4157160;28;20037;-67
2023/09/01 20:17:31;;;;;;;4.78;1.25;;;;;;;19.50;78.73;100644.75;4143564;28;20477;-68
2023/09/01 20:19:34;;;;;;;3.85;1.00;;;;;;;19.49;79.12;100640.38;4147339;28;20416;-68
2023/09/01 20:21:37;;;;;;;4.35;1.10;;;;;;;19.48;79.22;100641.28;4161339;28;20515;-68
2023/09/01 20:23:40;;;;;;;9.73;1.33;;;;;;;19.50;79.54;100643.88;4160222;28;20523;-68
2023/09/01 20:25:43;;;;;;;2.25;1.02;;;;;;;19.50;79.14;100639.47;4160368;28;20448;-67
2023/09/01 20:27:47;;;;;;;2.15;1.33;;;;;;;19.51;79.43;100646.50;4157043;28;20033;-68
2023/09/01 20:29:50;;;;;;;4.88;1.00;;;;;;;19.53;79.23;100644.69;4160778;28;20069;-68
2023/09/01 20:31:53;;;;;;;8.48;1.35;;;;;;;19.53;79.25;100642.03;4158769;28;20084;-67
2023/09/01 20:33:56;;;;;;;3.22;1.33;;;;;;;19.51;79.20;100646.50;4143620;28;20049;-68
2023/09/01 20:35:58;;;;;;;6.18;1.30;;;;;;;19.49;79.05;100643.03;4146246;28;20050;-68
2023/09/01 20:38:01;;;;;;;3.88;1.20;;;;;;;19.48;79.31;100645.69;4160712;28;20045;-68
2023/09/01 20:40:05;;;;;;;3.13;1.10;;;;;;;19.47;79.39;100649.22;4144399;28;20524;-67
2023/09/01 20:42:09;;;;;;;7.07;1.38;;;;;;;19.45;79.27;100649.25;4142998;28;20049;-68
2023/09/01 20:44:13;;;;;;;6.18;1.85;;;;;;;19.43;79.30;100648.41;4143703;28;20037;-68
2023/09/01 20:46:18;;;;;;;2.72;1.50;;;;;;;19.42;79.08;100657.22;4148518;28;20132;-68
2023/09/01 20:48:20;;;;;;;;;;;;;;;19.30;79.27;100660.97;4160015;28;20030;-68
2023/09/01 20:50:23;;;;;;;4.35;1.90;;;;;;;19.29;79.44;100656.59;4160077;28;19925;-68
2023/09/01 20:52:28;;;;;;;6.10;1.50;;;;;;;19.31;79.40;100660.06;4143957;28;20065;-68
2023/09/01 20:54:30;;;;;;;;;;;;;;;19.19;79.60;100661.16;4160325;28;20037;-68
2023/09/01 20:56:33;;;;;;;5.10;1.10;;;;;;;19.22;79.64;100659.38;4127925;28;19925;-67
2023/09/01 20:58:36;;;;;;;6.53;1.52;;;;;;;19.22;79.67;100670.78;4144606;28;20069;-67
2023/09/01 21:00:41;;;;;;;7.28;1.50;;;;;;;19.22;79.96;100665.50;4150873;28;20415;-67
2023/09/01 21:02:46;;;;;;;4.82;1.80;;;;;;;19.23;80.00;100672.53;4138602;28;20045;-67
2023/09/01 21:04:50;;;;;;;4.13;1.23;;;;;;;19.23;80.16;100666.34;4142086;28;20436;-68
2023/09/01 21:06:53;;;;;;;2.90;1.60;;;;;;;19.24;80.08;100674.25;4126589;28;20049;-68
2023/09/01 21:08:58;;;;;;;4.70;1.40;;;;;;;19.23;80.19;100671.63;4160677;28;20530;-68
2023/09/01 21:11:01;;;;;;;5.82;1.38;;;;;;;19.21;80.73;100676.06;4160288;28;20492;-68
2023/09/01 21:13:06;;;;;;;4.30;1.38;;;;;;;19.21;80.57;100683.97;4143563;28;20559;-69
2023/09/01 21:15:09;;;;;;;2.05;1.25;;;;;;;19.18;80.39;100675.22;4161194;28;20065;-67
2023/09/01 21:17:14;;;;;;;4.55;1.40;;;;;;;19.16;80.38;100669.13;4159131;28;20132;-68
2023/09/01 21:19:17;;;;;;;3.55;1.48;;;;;;;19.13;80.62;100677.09;4154605;28;20112;-67
2023/09/01 21:21:19;;;;;;;5.47;1.40;;;;;;;19.12;80.93;100685.88;4159746;28;20042;-67
2023/09/01 21:23:22;;;;;;;4.63;1.63;;;;;;;19.10;80.84;100682.41;4159671;28;20107;-68
2023/09/01 21:25:25;;;;;;;4.47;1.70;;;;;;;19.08;80.47;100692.09;4139921;28;20125;-68
2023/09/01 21:27:28;;;;;;;7.57;1.55;;;;;;;19.05;80.56;100681.59;4157462;28;20034;-68
2023/09/01 21:29:31;;;;;;;5.78;1.77;;;;;;;19.02;80.97;100684.28;4142795;28;20037;-68
2023/09/01 21:31:36;;;;;;;6.00;1.77;;;;;;;19.01;80.75;100687.81;4156837;28;20483;-68
2023/09/01 21:33:40;;;;;;;;;;;;;;;18.88;81.05;100691.56;4157826;28;20052;-68
2023/09/01 21:35:43;;;;;;;2.20;1.58;;;;;;;18.86;81.70;100706.50;4142803;28;20331;-68
2023/09/01 21:37:45;;;;;;;3.75;1.85;;;;;;;18.87;81.79;100697.75;4159928;28;20056;-68
2023/09/01 21:39:48;;;;;;;3.95;2.15;;;;;;;18.91;81.72;100696.78;4142387;28;20038;-68
2023/09/01 21:41:50;;;;;;;5.45;2.05;;;;;;;18.93;81.55;100695.84;4160938;28;20143;-68
2023/09/01 21:43:52;;;;;;;6.78;1.95;;;;;;;18.92;81.36;100703.78;4161150;28;20056;-68
2023/09/01 21:45:55;;;;;;;4.57;1.90;;;;;;;18.88;81.91;100702.09;4158313;28;20041;-68
2023/09/01 21:47:58;;;;;;;4.18;1.75;;;;;;;18.89;81.68;100704.69;4158107;28;20041;-68
2023/09/01 21:50:03;;;;;;;5.57;2.17;;;;;;;18.89;81.91;100698.56;4142213;28;20050;-68
2023/09/01 21:52:06;;;;;;;3.17;2.03;;;;;;;18.90;81.59;100700.31;4159365;28;20041;-68
2023/09/01 21:54:09;;;;;;;2.88;1.85;;;;;;;18.92;81.56;100703.78;4159285;28;20407;-68
2023/09/01 21:56:11;;;;;;;5.05;2.75;;;;;;;18.93;81.65;100716.94;4160755;28;20042;-68
2023/09/01 21:58:13;;;;;;;5.13;1.85;;;;;;;18.92;81.46;100709.06;4142432;28;20137;-68
2023/09/01 22:00:16;;;;;;;4.30;2.25;;;;;;;18.86;82.17;100714.41;4159793;28;20033;-68
2023/09/01 22:02:18;;;;;;;4.45;2.15;;;;;;;18.86;81.85;100719.66;4161726;28;20033;-68
2023/09/01 22:04:21;;;;;;;4.00;2.03;;;;;;;18.84;82.02;100723.19;4164470;28;20056;-68
2023/09/01 22:06:25;;;;;;;3.60;2.05;;;;;;;18.84;81.92;100723.19;4145897;28;20505;-68
2023/09/01 22:08:28;;;;;;;2.30;1.52;;;;;;;18.80;82.29;100726.75;4144500;28;20038;-68
2023/09/01 22:10:30;;;;;;;7.00;1.83;;;;;;;18.80;82.58;100729.41;4160666;28;20488;-68
2023/09/01 22:12:33;;;;;;;3.78;1.60;;;;;;;18.80;82.04;100731.16;4163373;28;20405;-68
2023/09/01 22:14:36;;;;;;;5.00;2.20;;;;;;;18.77;82.06;100726.81;4162931;28;20642;-68
2023/09/01 22:16:38;;;;;;;4.60;2.05;;;;;;;18.75;82.22;100738.25;4162602;28;20092;-68
2023/09/01 22:18:41;;;;;;;6.00;2.30;;;;;;;18.73;81.83;100730.38;4162831;28;20124;-68
2023/09/01 22:20:44;;;;;;;5.30;2.35;;;;;;;18.72;81.75;100736.56;4160463;28;20034;-68
2023/09/01 22:22:48;;;;;;;6.53;2.38;;;;;;;18.61;81.48;100735.84;4129200;28;20502;-68
2023/09/01 22:24:50;;;;;;;3.65;2.25;;;;;;;18.56;81.75;100735.03;4161800;28;20042;-68
2023/09/01 22:26:53;;;;;;;4.70;2.30;;;;;;;18.54;82.19;100731.56;4162384;28;20037;-68
2023/09/01 22:28:56;;;;;;;11.55;2.33;;;;;;;18.52;81.99;100731.59;4162834;28;20123;-68
2023/09/01 22:30:59;;;;;;;4.80;2.22;;;;;;;18.48;82.23;100730.75;4145735;28;20073;-67
2023/09/01 22:33:02;;;;;;;3.03;1.73;;;;;;;18.48;82.24;100746.53;4163123;28;20045;-68
2023/09/01 22:35:06;;;;;;;3.50;1.92;;;;;;;18.46;82.65;100736.94;4144929;28;20268;-68
2023/09/01 22:37:09;;;;;;;3.13;1.65;;;;;;;18.43;82.95;100735.22;4162272;28;20472;-68
2023/09/01 22:39:13;;;;;;;4.65;2.10;;;;;;;18.45;82.75;100753.63;4161335;28;20484;-68
2023/09/01 22:41:16;;;;;;;6.35;2.30;;;;;;;18.43;82.76;100747.53;4145451;28;20041;-67
2023/09/01 22:43:20;;;;;;;5.47;1.92;;;;;;;18.45;82.93;100751.00;4163092;28;20416;-67
2023/09/01 22:45:23;;;;;;;7.88;2.00;;;;;;;18.51;82.49;100753.53;4162439;28;20504;-67
2023/09/01 22:47:26;;;;;;;4.78;2.25;;;;;;;18.43;82.53;100763.31;4162286;28;20072;-67
2023/09/01 22:49:29;;;;;;;2.90;1.90;;;;;;;18.35;82.63;100768.66;4143855;28;20088;-67
2023/09/01 22:51:31;;;;;;;6.68;2.00;;;;;;;18.26;83.52;100759.13;4161469;28;20594;-67
2023/09/01 22:53:34;;;;;;;5.13;2.20;;;;;;;18.21;84.09;100762.69;4161460;28;20707;-67
2023/09/01 22:55:38;;;;;;;5.60;2.13;;;;;;;18.23;83.76;100771.47;4145358;28;20125;-67
2023/09/01 22:57:41;;;;;;;4.75;2.17;;;;;;;18.22;83.83;100767.94;4161010;28;20033;-67
2023/09/01 22:59:44;;;;;;;6.07;2.20;;;;;;;18.26;83.82;100771.41;4162697;28;20037;-67
2023/09/01 23:01:47;;;;;;;6.22;2.53;;;;;;;18.30;83.52;100766.09;4162858;28;20465;-67
2023/09/01 23:03:50;;;;;;;8.52;1.83;;;;;;;18.28;83.57;100765.25;4145000;28;20030;-67
2023/09/01 23:05:53;;;;;;;2.67;1.95;;;;;;;18.30;83.81;100767.88;4161407;28;20037;-67
2023/09/01 23:07:59;;;;;;;5.57;2.38;;;;;;;18.30;83.48;100763.47;4159589;28;20516;-66
2023/09/01 23:10:02;;;;;;;4.22;1.90;;;;;;;18.29;83.85;100766.09;4142207;28;20080;-67
2023/09/01 23:12:08;;;;;;;5.35;2.33;;;;;;;18.29;83.64;100764.34;4162451;28;20041;-66
2023/09/01 23:14:11;;;;;;;4.43;2.08;;;;;;;18.27;83.55;100760.88;4144820;28;20100;-67
2023/09/01 23:16:13;;;;;;;4.03;1.92;;;;;;;18.25;83.42;100757.41;4161822;28;20088;-67
2023/09/01 23:18:16;;;;;;;3.22;1.75;;;;;;;18.27;83.25;100765.28;4161616;28;20550;-67
2023/09/01 23:20:19;;;;;;;5.68;2.10;;;;;;;18.25;83.41;100756.50;4144839;28;20579;-67
2023/09/01 23:22:22;;;;;;;5.30;2.08;;;;;;;18.24;83.35;100753.00;4162269;28;20055;-67
2023/09/01 23:24:25;;;;;;;4.53;1.73;;;;;;;18.22;83.31;100752.16;4161740;28;20052;-67
2023/09/01 23:26:28;;;;;;;4.20;1.80;;;;;;;18.23;83.57;100750.41;4162108;28;20091;-67
2023/09/01 23:28:33;;;;;;;4.47;2.10;;;;;;;18.23;82.92;100750.41;4159873;28;20052;-67
2023/09/01 23:30:36;;;;;;;6.85;2.10;;;;;;;18.11;82.96;100752.28;4162088;28;20070;-67
2023/09/01 23:32:39;;;;;;;4.40;2.40;;;;;;;18.07;83.43;100754.97;4143877;28;20046;-67
2023/09/01 23:34:42;;;;;;;6.53;2.40;;;;;;;18.06;83.39;100756.75;4145196;28;20041;-67
2023/09/01 23:36:44;;;;;;;3.33;1.83;;;;;;;18.06;83.70;100758.50;4144482;28;20137;-67
2023/09/01 23:38:47;;;;;;;4.47;2.47;;;;;;;18.07;83.75;100765.50;4162128;28;20095;-68
2023/09/01 23:40:50;;;;;;;8.57;2.90;;;;;;;18.09;83.97;100763.72;4180506;22;20041;-77
2023/09/01 23:42:53;;;;;;;4.40;1.60;;;;;;;18.07;83.94;100761.09;4165054;28;20219;-76
2023/09/01 23:44:57;;;;;;;3.17;1.98;;;;;;;18.07;83.64;100761.09;4161044;28;20069;-76
2023/09/01 23:47:00;;;;;;;4.75;1.90;;;;;;;18.07;83.88;100763.75;4162986;28;20136;-76
2023/09/01 23:49:05;;;;;;;4.75;2.10;;;;;;;18.07;83.62;100765.50;4159873;28;20065;-77
2023/09/01 23:51:08;;;;;;;3.00;1.85;;;;;;;18.03;83.93;100758.53;4176362;28;20044;-77
2023/09/01 23:53:11;;;;;;;3.22;1.58;;;;;;;18.03;83.82;100775.19;4142839;28;20049;-76
2023/09/01 23:55:14;;;;;;;4.05;1.73;;;;;;;17.99;84.33;100776.13;4144667;28;20480;-77
2023/09/01 23:57:17;;;;;;;2.95;1.90;;;;;;;17.99;84.27;100777.88;4159944;28;20475;-77
2023/09/01 23:59:20;;;;;;;3.08;1.70;;;;;;;17.96;84.04;100779.66;4161090;28;20476;-77
